Decoded Metar for CYLH (LANSDOWNE HOUSE in ON, CANADA) (IATA:N/A) | Meteo·Mobile Aviation Weather
aviador You're here:

CYLH Decoded Metar

LANSDOWNE HOUSE in ON, CANADA
Report Time2018-09-25 15:00:00
UTC Time2018-09-25 15:38:05
Flight Rules mvfr MVFR
Wind290° at 05 kt
W.Decomp.*RWY 26: 4.0 kt HW 2.9 kt RCW
W.Rank290° ranks 6
Current wind is below 290° avg. (6.8)
Visibility9999 m
Phenomena:N/A
Clouds:Overcast 010 Hf
Expected CloudBase > 400 ft AGL from Temp-Dew spread
Ceiling1,000 ft
Temp03°C (ISA -10)
Dew Point02°C (93% RH)
AAT-0.5°C
QNH1009 hPa
Density Alt-184 ft
Elevation833 ft
Report Wrong Elevation
Raw Report
METAR CYLH 251500Z AUTO 29005KT 250V320 9SM OVC010 03/02 A2980 RMK SLP107=

Extra information for CYLH:More info

Metar Taf Metar & Taf Last 4 Metars F.Rules Stats Wind Profile Meteogram Temp Stats Airport Information Weather charts Add Link Nearby VenuesMetar ALERT Operation Metar Decoded Social comments